Time;durP1;ratioP1;P1;durP2;ratioP2;P2;SDS_P1;SDS_P2;PMS_P1;PMS_P2;Temp;Humidity;BMP_temperature;BMP_pressure;BME280_temperature;BME280_humidity;BME280_pressure;Samples;Min_cycle;Max_cycle;Signal;HPM_P1;HPM_P2
2022/09/28 00:01:35;;;;;;;3.97;2.27;;;12.00;99.90;;;;;;5085692;28;20225;-33
2022/09/28 00:04:02;;;;;;;3.07;2.23;;;11.90;99.90;;;;;;5066979;28;20210;-33
2022/09/28 00:06:30;;;;;;;2.87;2.13;;;11.90;99.90;;;;;;5087812;28;20222;-32
2022/09/28 00:09:02;;;;;;;3.37;2.27;;;11.90;99.90;;;;;;5086048;28;20357;-32
2022/09/28 00:11:32;;;;;;;3.23;2.13;;;11.90;99.90;;;;;;5088141;28;20572;-33
2022/09/28 00:14:02;;;;;;;3.13;2.30;;;11.90;99.90;;;;;;5079401;28;20211;-32
2022/09/28 00:16:32;;;;;;;4.27;2.77;;;11.90;99.90;;;;;;5087119;28;20616;-33
2022/09/28 00:19:03;;;;;;;5.30;2.60;;;11.90;99.90;;;;;;5085133;28;21057;-32
2022/09/28 00:21:35;;;;;;;4.70;2.47;;;12.00;99.90;;;;;;5084761;28;20539;-32
2022/09/28 00:24:17;;;;;;;4.00;2.50;;;12.00;99.90;;;;;;5061623;28;20246;-32
2022/09/28 00:26:53;;;;;;;3.40;2.53;;;12.00;99.90;;;;;;5066579;28;20316;-32
2022/09/28 00:29:36;;;;;;;2.97;2.43;;;12.00;99.90;;;;;;5079720;28;20297;-32
2022/09/28 00:32:10;;;;;;;3.30;3.00;;;12.00;99.90;;;;;;5067394;28;20222;-33
2022/09/28 00:34:44;;;;;;;4.13;2.70;;;12.00;99.90;;;;;;5080638;28;20281;-32
2022/09/28 00:37:13;;;;;;;3.97;2.80;;;12.00;99.90;;;;;;5086510;28;20222;-33
2022/09/28 00:39:45;;;;;;;5.27;3.20;;;12.00;99.90;;;;;;5084418;28;20313;-33
2022/09/28 00:42:24;;;;;;;3.80;3.40;;;12.00;99.90;;;;;;5086484;28;20712;-32
2022/09/28 00:44:53;;;;;;;3.90;3.50;;;12.00;99.90;;;;;;5083019;28;20190;-33
2022/09/28 00:47:50;;;;;;;4.83;3.87;;;12.00;99.90;;;;;;5086264;28;20325;-32
2022/09/28 00:50:20;;;;;;;4.37;3.90;;;12.10;99.90;;;;;;5081481;28;20309;-33
2022/09/28 00:53:14;;;;;;;4.20;3.80;;;12.00;99.90;;;;;;5083565;28;20749;-33
2022/09/28 00:55:51;;;;;;;4.00;3.60;;;12.00;99.90;;;;;;5085957;28;20677;-32
2022/09/28 00:58:26;;;;;;;4.70;3.73;;;12.10;99.90;;;;;;5078932;28;20229;-33
2022/09/28 01:00:57;;;;;;;5.70;4.27;;;12.10;99.90;;;;;;5083977;28;20202;-33
2022/09/28 01:03:27;;;;;;;5.07;4.03;;;12.00;99.90;;;;;;5074413;28;20241;-33
2022/09/28 01:05:58;;;;;;;4.60;4.10;;;12.00;99.90;;;;;;5074249;28;20694;-33
2022/09/28 01:08:27;;;;;;;4.63;4.23;;;12.00;99.90;;;;;;5078320;28;20588;-33
2022/09/28 01:10:54;;;;;;;4.57;3.90;;;12.10;99.90;;;;;;5071812;28;20738;-32
2022/09/28 01:13:31;;;;;;;4.30;3.90;;;12.00;99.90;;;;;;5070225;28;20297;-33
2022/09/28 01:16:20;;;;;;;4.30;3.97;;;12.10;99.90;;;;;;5066337;28;20590;-33
2022/09/28 01:19:02;;;;;;;4.73;3.57;;;12.10;99.90;;;;;;5067631;28;20702;-33
2022/09/28 01:21:43;;;;;;;4.37;3.97;;;12.00;99.90;;;;;;5078662;28;20203;-33
2022/09/28 01:24:40;;;;;;;5.63;4.20;;;12.00;99.90;;;;;;5065841;28;20274;-33
2022/09/28 01:27:25;;;;;;;5.47;4.00;;;12.10;99.90;;;;;;5071756;28;20713;-33
2022/09/28 01:30:04;;;;;;;5.03;4.27;;;12.10;99.90;;;;;;5080382;28;20214;-33
2022/09/28 01:33:03;;;;;;;6.93;4.33;;;12.10;99.90;;;;;;5082712;28;20563;-32
2022/09/28 01:35:52;;;;;;;4.13;3.60;;;12.10;99.90;;;;;;5084486;28;20214;-32
2022/09/28 01:38:29;;;;;;;4.63;3.70;;;12.10;99.90;;;;;;5083304;28;20214;-32
2022/09/28 01:40:59;;;;;;;4.10;3.57;;;12.10;99.90;;;;;;5083270;28;20209;-33
2022/09/28 01:43:33;;;;;;;4.00;3.53;;;12.00;99.90;;;;;;5083029;28;20238;-33
2022/09/28 01:46:20;;;;;;;4.13;3.57;;;12.00;99.90;;;;;;5082510;28;21026;-32
2022/09/28 01:49:02;;;;;;;5.17;3.57;;;12.10;99.90;;;;;;5084372;28;20632;-33
2022/09/28 01:51:41;;;;;;;3.40;3.10;;;12.10;99.90;;;;;;5085647;28;20566;-33
2022/09/28 01:54:18;;;;;;;3.73;3.27;;;12.10;99.90;;;;;;5083393;28;20206;-33
2022/09/28 01:56:51;;;;;;;4.73;2.80;;;12.00;99.90;;;;;;5083262;28;20668;-32
2022/09/28 01:59:24;;;;;;;5.40;3.40;;;12.00;99.90;;;;;;5084583;28;20541;-32
2022/09/28 02:02:00;;;;;;;4.37;3.23;;;12.00;99.90;;;;;;5073716;28;20743;-32
2022/09/28 02:04:52;;;;;;;4.77;3.30;;;12.00;99.90;;;;;;5082842;28;20735;-33
2022/09/28 02:07:30;;;;;;;5.27;3.40;;;12.00;99.90;;;;;;5084326;28;20569;-33
2022/09/28 02:10:10;;;;;;;5.23;3.43;;;12.00;99.90;;;;;;5084545;28;20809;-32
2022/09/28 02:13:01;;;;;;;6.10;3.53;;;12.00;99.90;;;;;;5081300;28;20198;-33
2022/09/28 02:16:02;;;;;;;4.03;3.43;;;11.90;99.90;;;;;;5083976;28;20222;-33
2022/09/28 02:18:32;;;;;;;5.13;3.13;;;12.00;99.90;;;;;;5084030;28;20266;-32
2022/09/28 02:21:22;;;;;;;4.40;3.40;;;11.90;99.90;;;;;;5081467;28;20580;-32
2022/09/28 02:24:06;;;;;;;4.97;3.40;;;11.90;99.90;;;;;;5084295;28;20238;-33
2022/09/28 02:26:40;;;;;;;6.83;3.70;;;11.90;99.90;;;;;;5081400;28;20225;-32
2022/09/28 02:29:12;;;;;;;4.27;3.33;;;11.90;99.90;;;;;;5072631;28;20586;-32
2022/09/28 02:31:39;;;;;;;4.33;3.27;;;11.80;99.90;;;;;;5084063;28;20211;-32
2022/09/28 02:34:09;;;;;;;4.93;3.20;;;11.80;99.90;;;;;;5082843;28;20310;-33
2022/09/28 02:36:37;;;;;;;4.17;3.73;;;11.80;99.90;;;;;;5084215;28;20231;-33
2022/09/28 02:39:15;;;;;;;3.90;2.93;;;11.80;99.90;;;;;;5083327;28;20222;-33
2022/09/28 02:41:54;;;;;;;5.27;2.97;;;11.80;99.90;;;;;;5082371;28;20730;-33
2022/09/28 02:44:43;;;;;;;2.90;2.60;;;11.80;99.90;;;;;;5080201;28;20199;-33
2022/09/28 02:47:46;;;;;;;4.23;3.30;;;11.70;99.90;;;;;;5085048;28;20214;-32
2022/09/28 02:50:32;;;;;;;4.80;3.07;;;11.70;99.90;;;;;;5081305;28;20603;-32
2022/09/28 02:53:26;;;;;;;3.83;2.87;;;11.70;99.90;;;;;;5082028;28;20608;-32
2022/09/28 02:55:59;;;;;;;6.30;3.10;;;11.70;99.90;;;;;;5065937;28;20653;-32
2022/09/28 02:58:39;;;;;;;5.13;3.13;;;11.70;99.90;;;;;;5072790;28;20600;-32
2022/09/28 03:01:08;;;;;;;4.20;2.87;;;11.70;99.90;;;;;;5084368;28;20221;-32
2022/09/28 03:03:56;;;;;;;3.47;2.80;;;11.70;99.90;;;;;;5081637;28;20191;-33
2022/09/28 03:06:32;;;;;;;3.10;2.90;;;11.70;99.90;;;;;;5088260;28;20254;-32
2022/09/28 03:09:11;;;;;;;4.17;2.90;;;11.70;99.90;;;;;;5087497;28;20692;-33
2022/09/28 03:11:46;;;;;;;3.13;2.57;;;11.70;99.90;;;;;;5086882;28;20208;-32
2022/09/28 03:14:14;;;;;;;3.40;2.70;;;11.70;99.90;;;;;;5086419;28;20213;-32
2022/09/28 03:16:45;;;;;;;4.20;2.90;;;11.70;99.90;;;;;;5086713;28;20214;-31
2022/09/28 03:19:15;;;;;;;3.57;2.43;;;11.70;99.90;;;;;;5087575;28;20239;-32
2022/09/28 03:21:48;;;;;;;3.43;2.50;;;11.70;99.90;;;;;;5088439;28;20209;-32
2022/09/28 03:24:15;;;;;;;4.70;2.80;;;11.70;99.90;;;;;;5087528;28;20209;-32
2022/09/28 03:26:45;;;;;;;3.63;2.30;;;11.70;99.90;;;;;;5088574;28;20209;-33
2022/09/28 03:29:14;;;;;;;5.00;2.70;;;11.70;99.90;;;;;;5087036;28;20191;-32
2022/09/28 03:31:44;;;;;;;4.30;2.30;;;11.70;99.90;;;;;;5086230;28;20673;-32
2022/09/28 03:34:14;;;;;;;4.43;2.17;;;11.70;99.90;;;;;;5086557;28;20548;-32
2022/09/28 03:36:41;;;;;;;2.80;2.17;;;11.60;99.90;;;;;;5087358;28;20309;-32
2022/09/28 03:39:11;;;;;;;3.07;2.20;;;11.60;99.90;;;;;;5087453;28;20618;-32
2022/09/28 03:41:43;;;;;;;6.03;2.60;;;11.60;99.90;;;;;;5085912;28;20211;-32
2022/09/28 03:44:12;;;;;;;4.63;2.50;;;11.60;99.90;;;;;;5085800;28;20206;-33
2022/09/28 03:46:41;;;;;;;5.50;2.20;;;11.50;99.90;;;;;;5087252;28;20207;-32
2022/09/28 03:49:14;;;;;;;3.20;2.20;;;11.50;99.90;;;;;;5085765;28;20556;-33
2022/09/28 03:51:41;;;;;;;3.83;2.43;;;11.50;99.90;;;;;;5069665;28;20574;-32
2022/09/28 03:54:13;;;;;;;3.17;2.10;;;11.50;99.90;;;;;;5078881;28;20206;-32
2022/09/28 03:56:40;;;;;;;3.33;2.03;;;11.50;99.90;;;;;;5087639;28;20313;-32
2022/09/28 03:59:15;;;;;;;4.30;1.93;;;11.50;99.90;;;;;;5085576;28;20696;-32
2022/09/28 04:01:42;;;;;;;2.90;2.00;;;11.40;99.90;;;;;;5086704;28;20663;-33
2022/09/28 04:04:15;;;;;;;3.43;2.20;;;11.40;99.90;;;;;;5085961;28;20198;-32
2022/09/28 04:06:45;;;;;;;3.67;2.13;;;11.40;99.90;;;;;;5087459;28;20195;-32
2022/09/28 04:09:12;;;;;;;2.63;1.83;;;11.40;99.90;;;;;;5086237;28;20585;-32
2022/09/28 04:11:42;;;;;;;2.17;1.80;;;11.40;99.90;;;;;;5085439;28;20256;-33
2022/09/28 04:14:29;;;;;;;2.97;1.70;;;11.30;99.90;;;;;;5085428;28;20198;-32
2022/09/28 04:16:56;;;;;;;3.83;2.13;;;11.30;99.90;;;;;;5083474;28;20227;-32
2022/09/28 04:19:26;;;;;;;2.53;2.00;;;11.20;99.90;;;;;;5086824;28;20235;-33
2022/09/28 04:21:53;;;;;;;4.23;1.90;;;11.20;99.90;;;;;;5083349;28;20195;-32
2022/09/28 04:24:20;;;;;;;3.37;1.83;;;11.20;99.90;;;;;;5087754;28;20199;-32
2022/09/28 04:26:50;;;;;;;2.43;1.70;;;11.10;99.90;;;;;;5085922;28;20709;-32
2022/09/28 04:29:19;;;;;;;4.27;1.63;;;11.10;99.90;;;;;;5085059;28;20213;-32
2022/09/28 04:31:51;;;;;;;5.07;2.33;;;11.00;99.90;;;;;;5084940;28;20564;-32
2022/09/28 04:34:20;;;;;;;3.63;2.30;;;11.00;99.90;;;;;;5084508;28;20565;-32
2022/09/28 04:36:48;;;;;;;4.57;2.00;;;11.00;99.90;;;;;;5083152;28;20257;-32
2022/09/28 04:39:20;;;;;;;2.53;2.00;;;11.00;99.90;;;;;;5085671;28;20191;-32
2022/09/28 04:41:48;;;;;;;3.17;1.83;;;11.00;99.90;;;;;;5085639;28;20217;-32
2022/09/28 04:44:17;;;;;;;3.73;2.60;;;11.00;99.90;;;;;;5078653;28;20212;-32
2022/09/28 04:46:47;;;;;;;2.17;1.80;;;11.00;99.90;;;;;;5072160;28;20206;-29
2022/09/28 04:49:14;;;;;;;3.73;1.80;;;11.00;99.90;;;;;;5084486;28;20207;-29
2022/09/28 04:51:42;;;;;;;3.97;2.20;;;11.00;99.90;;;;;;5084643;28;20293;-28
2022/09/28 04:54:12;;;;;;;4.67;2.20;;;11.00;99.90;;;;;;5084452;28;20806;-29
2022/09/28 04:56:40;;;;;;;3.90;2.00;;;11.00;99.90;;;;;;5084449;28;20227;-29
2022/09/28 04:59:11;;;;;;;2.97;2.10;;;11.00;99.90;;;;;;5080154;28;20203;-29
2022/09/28 05:01:41;;;;;;;3.90;2.20;;;11.00;99.90;;;;;;5069400;28;20745;-29
2022/09/28 05:04:08;;;;;;;3.10;2.20;;;11.00;99.90;;;;;;5074592;28;20220;-29
2022/09/28 05:06:37;;;;;;;3.83;2.10;;;11.00;99.90;;;;;;5072670;28;20222;-29
2022/09/28 05:09:05;;;;;;;5.00;2.40;;;10.90;99.90;;;;;;5077092;28;20207;-30
2022/09/28 05:11:35;;;;;;;3.07;2.00;;;10.90;99.90;;;;;;5075985;28;20237;-29
2022/09/28 05:14:05;;;;;;;3.07;1.70;;;10.90;99.90;;;;;;5079217;28;20268;-29
2022/09/28 05:16:34;;;;;;;3.00;2.07;;;10.90;99.90;;;;;;5082293;28;20227;-29
2022/09/28 05:19:02;;;;;;;3.97;2.00;;;10.80;99.90;;;;;;5080168;28;20238;-29
2022/09/28 05:21:34;;;;;;;3.47;1.87;;;10.80;99.90;;;;;;5080502;28;20736;-33
2022/09/28 05:24:06;;;;;;;3.17;1.80;;;10.80;99.90;;;;;;5067373;28;20207;-33
2022/09/28 05:26:36;;;;;;;2.67;1.80;;;10.70;99.90;;;;;;5081920;28;20210;-33
2022/09/28 05:29:03;;;;;;;2.10;1.60;;;10.70;99.90;;;;;;5075004;28;20229;-33
2022/09/28 05:31:35;;;;;;;3.90;2.00;;;10.70;99.90;;;;;;5076459;28;20218;-33
2022/09/28 05:34:06;;;;;;;3.13;2.40;;;10.60;99.90;;;;;;5081427;28;20318;-33
2022/09/28 05:36:34;;;;;;;5.10;2.13;;;10.60;99.90;;;;;;5065461;28;20211;-33
2022/09/28 05:39:06;;;;;;;3.77;1.70;;;10.60;99.90;;;;;;5072055;28;20613;-33
2022/09/28 05:41:33;;;;;;;2.20;1.80;;;10.50;99.90;;;;;;5069930;28;20203;-33
2022/09/28 05:44:03;;;;;;;4.57;1.63;;;10.50;99.90;;;;;;5080631;28;20183;-32
2022/09/28 05:46:32;;;;;;;4.90;1.70;;;10.50;99.90;;;;;;5070143;28;20207;-32
2022/09/28 05:49:02;;;;;;;2.10;1.47;;;10.50;99.90;;;;;;5082702;28;20611;-32
2022/09/28 05:51:30;;;;;;;2.70;1.90;;;10.50;99.90;;;;;;5085481;28;20205;-32
2022/09/28 05:53:57;;;;;;;4.20;1.77;;;10.40;99.90;;;;;;5083284;28;20210;-32
2022/09/28 05:56:30;;;;;;;3.50;1.60;;;10.40;99.90;;;;;;5081909;28;20392;-33
2022/09/28 05:58:57;;;;;;;4.83;1.63;;;10.60;99.90;;;;;;5084398;28;20213;-32
2022/09/28 06:01:27;;;;;;;9.60;2.10;;;10.60;99.90;;;;;;5083053;28;20624;-32
2022/09/28 06:03:54;;;;;;;7.73;2.10;;;10.50;99.90;;;;;;5083048;28;20224;-33
2022/09/28 06:06:21;;;;;;;3.23;1.40;;;10.50;99.90;;;;;;5085343;28;20206;-32
2022/09/28 06:08:51;;;;;;;2.50;1.57;;;10.40;99.90;;;;;;5083464;28;20207;-29
2022/09/28 06:11:20;;;;;;;5.23;2.30;;;10.40;99.90;;;;;;5085511;28;20197;-29
2022/09/28 06:13:53;;;;;;;7.70;2.67;;;10.30;99.90;;;;;;5082550;28;20215;-29
2022/09/28 06:16:20;;;;;;;8.73;2.30;;;10.30;99.90;;;;;;5085670;28;20260;-29
2022/09/28 06:18:47;;;;;;;3.97;2.33;;;10.30;99.90;;;;;;5080542;28;20705;-30
2022/09/28 06:21:15;;;;;;;4.77;1.97;;;10.30;99.90;;;;;;5081074;28;20249;-32
2022/09/28 06:23:42;;;;;;;3.20;2.10;;;10.30;99.90;;;;;;5083770;28;20215;-33
2022/09/28 06:26:15;;;;;;;3.93;2.00;;;10.30;99.90;;;;;;5082669;28;20215;-32
2022/09/28 06:28:47;;;;;;;3.60;2.03;;;10.30;99.90;;;;;;5084866;28;20206;-32
2022/09/28 06:31:14;;;;;;;3.67;1.90;;;10.30;99.90;;;;;;5083244;28;20279;-32
2022/09/28 06:33:42;;;;;;;3.83;1.77;;;10.30;99.90;;;;;;5077970;28;20319;-32
2022/09/28 06:36:14;;;;;;;3.97;2.20;;;10.30;99.90;;;;;;5082237;28;20206;-32
2022/09/28 06:38:44;;;;;;;6.00;2.80;;;10.30;99.90;;;;;;5080954;28;20219;-32
2022/09/28 06:41:11;;;;;;;7.07;2.97;;;10.30;99.90;;;;;;5080971;28;20211;-32
2022/09/28 06:43:41;;;;;;;5.37;3.00;;;10.30;99.90;;;;;;5081956;28;20314;-32
2022/09/28 06:46:12;;;;;;;14.00;4.07;;;10.30;99.90;;;;;;5084160;28;20680;-32
2022/09/28 06:48:45;;;;;;;7.67;3.67;;;10.30;99.90;;;;;;5078247;28;20252;-32
2022/09/28 06:51:12;;;;;;;9.40;4.33;;;10.30;99.90;;;;;;5079052;28;20206;-32
2022/09/28 06:53:42;;;;;;;8.73;3.87;;;10.30;99.90;;;;;;5079475;28;20703;-32
2022/09/28 06:56:10;;;;;;;9.53;4.03;;;10.40;99.90;;;;;;5083689;28;20198;-33
2022/09/28 06:58:39;;;;;;;4.60;4.00;;;10.40;99.90;;;;;;5077106;28;20602;-32
2022/09/28 07:01:11;;;;;;;9.50;4.17;;;10.40;99.90;;;;;;5077728;28;20215;-32
2022/09/28 07:03:39;;;;;;;8.23;5.10;;;10.50;99.90;;;;;;5079677;28;20268;-32
2022/09/28 07:06:13;;;;;;;11.50;5.00;;;10.50;99.90;;;;;;5076813;28;20329;-33
2022/09/28 07:08:42;;;;;;;7.97;4.53;;;10.50;99.90;;;;;;5083148;28;20217;-33
2022/09/28 07:11:12;;;;;;;8.30;4.83;;;10.60;99.90;;;;;;5081614;28;20206;-33
2022/09/28 07:13:40;;;;;;;5.07;4.57;;;10.60;99.90;;;;;;5078733;28;20198;-32
2022/09/28 07:16:17;;;;;;;11.83;4.83;;;10.60;99.90;;;;;;5064282;28;20600;-32
2022/09/28 07:18:50;;;;;;;7.73;5.20;;;10.60;99.90;;;;;;5083760;28;20238;-32
2022/09/28 07:21:19;;;;;;;6.83;5.20;;;10.70;99.90;;;;;;5076768;28;20203;-31
2022/09/28 07:23:55;;;;;;;7.53;5.13;;;10.70;99.90;;;;;;5076185;28;20687;-31
2022/09/28 07:26:25;;;;;;;8.37;5.30;;;10.80;99.90;;;;;;5081011;28;20263;-34
2022/09/28 07:28:54;;;;;;;12.03;5.93;;;10.80;99.90;;;;;;5082653;28;20198;-33
2022/09/28 07:31:24;;;;;;;13.37;5.93;;;10.80;99.90;;;;;;5077180;28;20628;-34
2022/09/28 07:33:54;;;;;;;13.50;5.60;;;10.90;99.90;;;;;;5080653;28;20225;-34
2022/09/28 07:36:21;;;;;;;11.63;5.80;;;10.90;99.90;;;;;;5078425;28;20204;-34
2022/09/28 07:38:49;;;;;;;9.17;5.07;;;11.00;99.90;;;;;;5082096;28;20223;-34
2022/09/28 07:41:21;;;;;;;5.60;5.00;;;11.00;99.90;;;;;;5079529;28;20729;-34
2022/09/28 07:43:54;;;;;;;14.33;5.50;;;11.10;99.90;;;;;;5082340;28;20211;-31
2022/09/28 07:46:23;;;;;;;6.43;4.57;;;11.10;99.90;;;;;;5080952;28;20574;-31
2022/09/28 07:48:51;;;;;;;10.87;4.97;;;11.20;99.90;;;;;;5081951;28;20215;-34
2022/09/28 07:51:20;;;;;;;10.17;5.37;;;11.20;99.90;;;;;;5084305;28;20210;-34
2022/09/28 07:53:47;;;;;;;13.13;5.30;;;11.30;99.90;;;;;;5086364;28;20574;-31
2022/09/28 07:56:19;;;;;;;9.80;4.87;;;11.30;99.90;;;;;;5088596;28;20295;-31
2022/09/28 07:58:48;;;;;;;9.83;5.57;;;11.30;99.90;;;;;;5087548;28;20234;-34
2022/09/28 08:01:20;;;;;;;7.00;4.90;;;11.40;99.90;;;;;;5083970;28;20203;-32
2022/09/28 08:03:47;;;;;;;7.73;5.10;;;11.40;99.90;;;;;;5080122;28;20286;-32
2022/09/28 08:06:16;;;;;;;7.60;4.63;;;11.50;99.90;;;;;;5078886;28;20380;-32
2022/09/28 08:08:46;;;;;;;6.73;4.50;;;11.60;99.90;;;;;;5085568;28;20230;-32
2022/09/28 08:11:15;;;;;;;7.20;3.93;;;11.60;99.90;;;;;;5085824;28;20577;-31
2022/09/28 08:13:44;;;;;;;6.90;4.50;;;11.60;99.90;;;;;;5085226;28;20581;-32
2022/09/28 08:16:13;;;;;;;5.90;4.50;;;11.70;99.90;;;;;;5086252;28;20698;-31
2022/09/28 08:18:44;;;;;;;8.83;4.50;;;11.70;99.90;;;;;;5082500;28;20235;-32
2022/09/28 08:24:04;;;;;;;7.10;3.87;;;11.80;99.90;;;;;;5085444;28;20213;-31
2022/09/28 08:26:34;;;;;;;10.13;3.43;;;11.90;99.90;;;;;;5085770;28;20210;-32
2022/09/28 08:29:02;;;;;;;7.73;3.43;;;11.90;99.90;;;;;;5087056;28;20217;-32
2022/09/28 08:31:29;;;;;;;8.53;3.47;;;11.90;99.90;;;;;;5085618;28;20303;-31
2022/09/28 08:33:59;;;;;;;4.67;3.13;;;12.00;99.90;;;;;;5084877;28;20199;-32
2022/09/28 08:36:27;;;;;;;9.73;4.33;;;12.00;99.90;;;;;;5084131;28;20215;-31
2022/09/28 08:38:58;;;;;;;8.97;4.07;;;12.10;99.90;;;;;;5081141;28;20255;-32
2022/09/28 08:41:52;;;;;;;8.13;4.03;;;12.10;99.90;;;;;;5078086;28;20201;-31
2022/09/28 08:44:25;;;;;;;7.33;3.90;;;12.10;99.90;;;;;;5073138;28;20705;-32
2022/09/28 08:47:05;;;;;;;6.87;3.90;;;12.20;99.90;;;;;;5086520;28;20198;-32
2022/09/28 08:49:42;;;;;;;6.60;3.63;;;12.20;99.90;;;;;;5084119;28;20663;-31
2022/09/28 08:52:17;;;;;;;8.07;3.67;;;12.30;99.90;;;;;;5066009;28;20540;-32
2022/09/28 08:54:50;;;;;;;5.30;3.53;;;12.30;99.90;;;;;;5075774;28;20218;-31
2022/09/28 08:57:26;;;;;;;11.27;3.90;;;12.30;99.90;;;;;;5086019;28;20195;-31
2022/09/28 08:59:59;;;;;;;7.97;3.97;;;12.40;99.90;;;;;;5087025;28;20216;-31
2022/09/28 09:02:33;;;;;;;7.53;3.90;;;12.40;99.90;;;;;;5085753;28;20197;-31
2022/09/28 09:05:05;;;;;;;7.90;3.30;;;12.50;99.90;;;;;;5084004;28;20308;-32
2022/09/28 09:08:00;;;;;;;7.33;4.07;;;12.50;99.90;;;;;;5084789;28;20202;-32
2022/09/28 09:10:58;;;;;;;13.00;4.97;;;12.60;99.90;;;;;;5071295;28;20277;-32
2022/09/28 09:14:00;;;;;;;8.27;3.53;;;12.60;99.90;;;;;;5067506;28;20214;-32
2022/09/28 09:16:44;;;;;;;4.67;3.20;;;12.70;99.90;;;;;;5085358;28;20205;-32
2022/09/28 09:19:35;;;;;;;6.10;3.13;;;12.70;99.90;;;;;;5084828;28;20325;-33
2022/09/28 09:22:08;;;;;;;6.20;3.80;;;12.70;99.90;;;;;;5081348;28;20218;-32
2022/09/28 09:25:07;;;;;;;7.20;3.53;;;12.80;99.90;;;;;;5083369;28;20200;-31
2022/09/28 09:28:05;;;;;;;4.47;3.10;;;12.80;99.90;;;;;;5066332;28;20203;-32
2022/09/28 09:30:51;;;;;;;7.17;2.67;;;12.80;99.90;;;;;;5079658;28;20218;-32
2022/09/28 09:33:57;;;;;;;7.43;2.77;;;12.90;99.90;;;;;;5083970;28;20207;-32
2022/09/28 09:36:34;;;;;;;10.77;3.30;;;12.90;99.90;;;;;;5081863;28;20729;-32
2022/09/28 09:39:03;;;;;;;10.23;3.90;;;12.90;99.90;;;;;;5084065;28;20222;-32
2022/09/28 09:41:48;;;;;;;6.07;3.10;;;13.00;99.90;;;;;;5085379;28;20198;-32
2022/09/28 09:44:40;;;;;;;5.77;3.33;;;13.00;99.90;;;;;;5082566;28;20294;-31
2022/09/28 09:47:14;;;;;;;5.53;3.30;;;13.10;99.90;;;;;;5081799;28;20646;-32
2022/09/28 09:49:49;;;;;;;10.13;3.03;;;13.10;99.90;;;;;;5083849;28;20213;-32
2022/09/28 09:52:18;;;;;;;5.37;2.90;;;13.10;99.90;;;;;;5083228;28;20268;-32
2022/09/28 09:54:54;;;;;;;5.77;2.90;;;13.20;99.90;;;;;;5085395;28;20655;-32
2022/09/28 09:57:43;;;;;;;6.33;2.53;;;13.20;99.90;;;;;;5085267;28;20206;-32
2022/09/28 10:00:14;;;;;;;4.57;2.20;;;13.30;99.90;;;;;;5081435;28;20315;-32
2022/09/28 10:02:44;;;;;;;4.03;2.33;;;13.30;99.90;;;;;;5073837;28;20354;-32
2022/09/28 10:05:16;;;;;;;5.00;2.13;;;13.30;99.90;;;;;;5080513;28;20202;-31
2022/09/28 10:07:55;;;;;;;6.77;2.33;;;13.30;99.90;;;;;;5078452;28;20581;-32
2022/09/28 10:10:33;;;;;;;7.67;1.80;;;13.30;99.90;;;;;;5083522;28;20628;-29
2022/09/28 10:13:04;;;;;;;3.97;2.20;;;13.30;99.90;;;;;;5084558;28;20214;-29
2022/09/28 10:15:35;;;;;;;4.10;2.20;;;13.40;99.90;;;;;;5083829;28;20605;-29
2022/09/28 10:18:12;;;;;;;8.30;2.63;;;13.40;99.90;;;;;;5084413;28;20231;-29
2022/09/28 10:20:42;;;;;;;11.83;3.43;;;13.50;99.90;;;;;;5070530;28;20211;-29
2022/09/28 10:23:35;;;;;;;3.50;2.07;;;13.60;99.90;;;;;;5082720;28;20210;-29
2022/09/28 10:26:12;;;;;;;5.13;2.20;;;13.70;99.90;;;;;;5084586;28;20836;-29
2022/09/28 10:28:46;;;;;;;3.13;1.80;;;13.70;99.90;;;;;;5083203;28;20206;-32
2022/09/28 10:31:38;;;;;;;6.50;1.93;;;13.70;99.90;;;;;;5083465;28;20214;-32
2022/09/28 10:34:13;;;;;;;7.80;2.10;;;13.70;99.90;;;;;;5078902;28;20207;-32
2022/09/28 10:36:46;;;;;;;5.63;1.67;;;13.80;99.90;;;;;;5078266;28;20218;-32
2022/09/28 10:39:30;;;;;;;7.90;1.77;;;13.80;99.90;;;;;;5083479;28;20556;-32
2022/09/28 10:42:02;;;;;;;5.07;1.60;;;13.90;99.90;;;;;;5079400;28;20209;-33
2022/09/28 10:44:34;;;;;;;5.00;2.00;;;13.90;99.90;;;;;;5078185;28;20248;-32
2022/09/28 10:47:05;;;;;;;5.77;1.90;;;14.00;99.90;;;;;;5074129;28;20547;-32
2022/09/28 10:49:43;;;;;;;4.60;2.00;;;14.10;99.90;;;;;;5075102;28;20598;-32
2022/09/28 10:52:40;;;;;;;3.33;1.63;;;14.10;99.90;;;;;;5078648;28;20341;-31
2022/09/28 10:55:31;;;;;;;3.73;1.60;;;14.20;99.90;;;;;;5071316;28;20623;-32
2022/09/28 10:57:59;;;;;;;2.90;1.30;;;14.20;99.90;;;;;;5081263;28;20207;-33
2022/09/28 11:00:42;;;;;;;3.60;1.50;;;14.20;99.90;;;;;;5083818;28;20677;-32
2022/09/28 11:03:27;;;;;;;5.13;1.40;;;14.30;99.90;;;;;;5080722;28;20629;-29
2022/09/28 11:06:06;;;;;;;3.47;1.17;;;14.30;99.90;;;;;;5077171;28;20684;-29
2022/09/28 11:08:44;;;;;;;2.97;1.23;;;14.30;99.90;;;;;;5081269;28;20716;-31
2022/09/28 11:11:20;;;;;;;2.47;1.30;;;14.30;99.90;;;;;;5074690;28;20207;-29
2022/09/28 11:13:51;;;;;;;5.27;1.63;;;14.30;99.90;;;;;;5083911;28;20305;-29
2022/09/28 11:16:30;;;;;;;5.03;1.40;;;14.30;99.90;;;;;;5076815;28;20201;-29
2022/09/28 11:19:24;;;;;;;3.87;1.00;;;14.40;99.90;;;;;;5063273;28;20299;-29
2022/09/28 11:21:53;;;;;;;0.93;0.40;;;14.40;99.90;;;;;;5075811;28;20294;-28
2022/09/28 11:24:23;;;;;;;0.77;0.37;;;14.40;99.90;;;;;;5076154;28;20639;-28
2022/09/28 11:26:55;;;;;;;5.10;1.03;;;14.40;99.90;;;;;;5094073;28;20273;-28
2022/09/28 11:29:40;;;;;;;0.53;0.37;;;14.30;99.90;;;;;;5084987;28;20557;-31
2022/09/28 11:32:09;;;;;;;2.77;0.60;;;14.30;99.90;;;;;;5085442;28;20256;-29
2022/09/28 11:34:44;;;;;;;0.73;0.37;;;14.30;99.90;;;;;;5086529;28;20203;-29
2022/09/28 11:37:40;;;;;;;1.40;0.57;;;14.20;99.90;;;;;;5089631;28;20367;-29
2022/09/28 11:40:19;;;;;;;1.03;0.50;;;14.10;99.90;;;;;;5087011;28;20373;-29
2022/09/28 11:42:59;;;;;;;1.30;0.40;;;14.00;99.90;;;;;;5087872;28;20202;-29
2022/09/28 11:45:50;;;;;;;2.30;0.57;;;14.00;99.90;;;;;;5078809;28;20203;-29
2022/09/28 11:48:29;;;;;;;2.73;0.83;;;13.90;99.90;;;;;;5094121;28;20218;-29
2022/09/28 11:51:01;;;;;;;4.43;0.80;;;13.90;99.90;;;;;;5084841;28;20235;-29
2022/09/28 11:53:44;;;;;;;1.83;0.80;;;13.90;99.90;;;;;;5081188;28;20209;-29
2022/09/28 11:56:28;;;;;;;3.20;1.00;;;13.90;99.90;;;;;;5086913;28;20207;-29
2022/09/28 11:59:02;;;;;;;3.43;0.67;;;13.90;99.90;;;;;;5086254;28;20237;-28
2022/09/28 12:01:46;;;;;;;2.03;0.70;;;13.90;99.90;;;;;;5082577;28;20202;-30
2022/09/28 12:04:28;;;;;;;1.87;0.87;;;13.90;99.90;;;;;;5086570;28;20979;-31
2022/09/28 12:07:02;;;;;;;2.83;1.10;;;14.00;99.90;;;;;;5083922;28;20795;-29
2022/09/28 12:09:40;;;;;;;1.70;0.70;;;14.10;99.90;;;;;;5076734;28;20202;-31
2022/09/28 12:12:32;;;;;;;3.30;1.07;;;14.20;99.90;;;;;;5086514;28;20629;-30
2022/09/28 12:15:24;;;;;;;1.73;0.77;;;14.20;99.90;;;;;;5085495;28;20234;-30
2022/09/28 12:18:05;;;;;;;3.87;1.10;;;14.30;99.90;;;;;;5066459;28;20700;-30
2022/09/28 12:20:38;;;;;;;2.60;1.13;;;14.40;99.90;;;;;;5081829;28;20696;-29
2022/09/28 12:23:10;;;;;;;2.47;1.13;;;14.40;99.90;;;;;;5082176;28;20213;-29
2022/09/28 12:25:46;;;;;;;2.07;1.23;;;14.50;99.90;;;;;;5084956;28;21356;-30
2022/09/28 12:28:37;;;;;;;2.60;1.20;;;14.60;99.90;;;;;;5087408;28;20197;-29
2022/09/28 12:31:16;;;;;;;2.93;0.93;;;14.60;99.90;;;;;;5081755;28;20218;-30
2022/09/28 12:33:47;;;;;;;2.63;1.00;;;14.70;99.90;;;;;;5084665;28;20215;-30
2022/09/28 12:36:39;;;;;;;3.73;1.43;;;14.80;99.90;;;;;;5084356;28;20724;-30
2022/09/28 12:39:24;;;;;;;2.27;1.17;;;14.90;99.90;;;;;;5086367;28;20728;-30
2022/09/28 12:42:32;;;;;;;3.83;0.93;;;15.00;99.90;;;;;;5083605;28;20565;-30
2022/09/28 12:45:26;;;;;;;4.63;1.40;;;15.00;99.90;;;;;;5085464;28;20214;-30
2022/09/28 12:48:12;;;;;;;2.63;0.90;;;15.10;99.90;;;;;;5084437;28;20256;-30
2022/09/28 12:51:08;;;;;;;4.43;1.67;;;15.20;99.90;;;;;;5086118;28;20211;-30
2022/09/28 12:53:47;;;;;;;6.27;1.50;;;15.20;99.90;;;;;;5081712;28;20211;-30
2022/09/28 12:56:29;;;;;;;7.40;1.90;;;15.20;99.90;;;;;;5085019;28;20214;-31
2022/09/28 12:59:38;;;;;;;6.70;1.50;;;15.30;99.90;;;;;;5085955;28;20554;-31
2022/09/28 13:03:00;;;;;;;3.17;1.00;;;15.30;99.90;;;;;;5088184;28;20263;-31
2022/09/28 13:05:43;;;;;;;2.70;0.80;;;15.20;99.90;;;;;;5103506;28;20194;-31
2022/09/28 13:08:24;;;;;;;10.30;1.40;;;15.20;99.90;;;;;;5084036;28;20254;-31
2022/09/28 13:11:14;;;;;;;3.70;1.07;;;15.10;99.90;;;;;;5074809;28;20617;-31
2022/09/28 13:14:08;;;;;;;4.70;1.43;;;15.10;99.90;;;;;;5066488;28;20207;-31
2022/09/28 13:17:20;;;;;;;2.13;1.40;;;15.10;99.90;;;;;;5073130;28;20298;-31
2022/09/28 13:19:57;;;;;;;2.90;1.60;;;15.00;99.90;;;;;;5086211;28;20560;-31
2022/09/28 13:22:41;;;;;;;2.33;1.30;;;14.90;99.90;;;;;;5085925;28;20244;-31
2022/09/28 13:25:15;;;;;;;3.63;1.67;;;14.90;99.90;;;;;;5086143;28;20199;-31
2022/09/28 13:27:53;;;;;;;2.97;1.30;;;14.90;99.90;;;;;;5082383;28;20203;-31
2022/09/28 13:30:20;;;;;;;2.57;1.20;;;14.90;99.90;;;;;;5086063;28;20206;-31
2022/09/28 13:32:55;;;;;;;3.93;1.50;;;14.90;99.90;;;;;;5084239;28;20279;-31